Time;durP1;ratioP1;P1;durP2;ratioP2;P2;SDS_P1;SDS_P2;PMS_P1;PMS_P2;Temp;Humidity;BMP_temperature;BMP_pressure;BME280_temperature;BME280_humidity;BME280_pressure;Samples;Min_cycle;Max_cycle;Signal;HPM_P1;HPM_P2
2022/03/30 00:01:00;;;;;;;;;48.25;39.00;;;;;12.48;68.18;100179.78;5080753;27;45802;-80
2022/03/30 00:03:26;;;;;;;;;48.50;35.75;;;;;12.48;68.58;100182.44;5094625;27;47203;-79
2022/03/30 00:05:53;;;;;;;;;52.25;39.25;;;;;12.06;67.90;100112.38;5070422;28;45804;-80
2022/03/30 00:08:18;;;;;;;;;40.25;34.75;;;;;12.42;65.07;100173.56;5073697;28;45311;-80
2022/03/30 00:10:44;;;;;;;;;44.25;35.00;;;;;12.47;66.49;100177.16;5072080;27;45452;-80
2022/03/30 00:13:09;;;;;;;;;41.50;37.75;;;;;12.39;66.87;100162.94;5074757;28;45253;-79
2022/03/30 00:15:35;;;;;;;;;47.50;37.75;;;;;12.40;68.04;100165.59;5072659;28;45228;-79
2022/03/30 00:18:00;;;;;;;;;47.25;37.25;;;;;12.22;68.23;100139.88;5073231;28;45969;-78
2022/03/30 00:20:26;;;;;;;;;42.00;36.00;;;;;12.16;64.75;100128.34;5073257;28;45374;-79
2022/03/30 00:22:51;;;;;;;;;48.50;38.75;;;;;12.40;67.65;100170.91;5078523;27;45333;-79
2022/03/30 00:25:17;;;;;;;;;38.00;32.25;;;;;12.22;68.04;100136.34;5074922;27;46579;-80
2022/03/30 00:27:46;;;;;;;;;46.50;38.50;;;;;12.38;67.28;100164.72;5075160;28;45283;-79
2022/03/30 00:30:13;;;;;;;;;51.25;40.50;;;;;12.14;67.31;100128.31;5075831;28;45241;-80
2022/03/30 00:32:38;;;;;;;;;45.75;38.00;;;;;12.23;68.24;100144.28;5071468;28;45645;-79
2022/03/30 00:35:05;;;;;;;;;60.00;46.50;;;;;12.30;67.29;100147.88;5076501;27;45514;-79
2022/03/30 00:37:31;;;;;;;;;56.50;44.75;;;;;12.36;68.40;100162.94;5075682;28;45335;-79
2022/03/30 00:39:57;;;;;;;;;57.00;45.75;;;;;12.35;65.90;100167.34;5069468;28;45375;-79
2022/03/30 00:42:24;;;;;;;;;56.50;44.00;;;;;12.33;66.78;100153.19;5077614;28;46158;-79
2022/03/30 00:44:50;;;;;;;;;56.25;44.50;;;;;12.07;68.18;100111.50;5072271;28;47949;-80
2022/03/30 00:47:22;;;;;;;;;58.75;44.50;;;;;12.31;67.16;100154.94;5074147;28;45294;-80
2022/03/30 00:49:48;;;;;;;;;55.25;45.00;;;;;12.09;65.48;100114.16;5078140;27;45383;-81
2022/03/30 00:52:16;;;;;;;;;57.50;47.75;;;;;12.29;68.23;100151.38;5076484;28;45248;-80
2022/03/30 00:54:44;;;;;;;;;57.00;46.50;;;;;12.29;68.03;100149.66;5073145;27;47034;-80
2022/03/30 00:57:12;;;;;;;;;59.75;47.25;;;;;12.23;67.73;100144.28;5076234;28;45334;-80
2022/03/30 00:59:39;;;;;;;;;65.75;47.25;;;;;12.29;68.93;100154.03;5073670;28;45445;-78
2022/03/30 01:02:05;;;;;;;;;59.25;46.00;;;;;12.13;67.50;100113.31;5066465;27;45312;-79
2022/03/30 01:04:33;;;;;;;;;51.00;43.00;;;;;12.22;67.81;100131.03;5075569;28;45240;-79
2022/03/30 01:06:59;;;;;;;;;56.50;47.00;;;;;12.14;67.37;100115.09;5067508;28;45366;-79
2022/03/30 01:09:25;;;;;;;;;55.50;44.75;;;;;12.12;69.22;100113.28;5073868;28;45451;-79
2022/03/30 01:11:53;;;;;;;;;57.00;47.75;;;;;11.98;68.62;100079.63;5067590;28;45552;-79
2022/03/30 01:14:19;;;;;;;;;58.75;47.25;;;;;12.15;68.56;100108.91;5077716;28;46843;-79
2022/03/30 01:16:44;;;;;;;;;56.75;44.75;;;;;12.05;68.90;100091.19;5069001;28;45257;-79
2022/03/30 01:19:11;;;;;;;;;57.25;45.25;;;;;12.00;67.04;100074.38;5079639;28;46052;-78
2022/03/30 01:21:38;;;;;;;;;57.25;46.50;;;;;11.95;68.88;100074.31;5073972;28;45408;-78
2022/03/30 01:24:05;;;;;;;;;61.25;49.00;;;;;12.16;68.71;100113.34;5084815;27;45578;-78
2022/03/30 01:26:31;;;;;;;;;59.25;46.00;;;;;12.07;69.45;100095.63;5080349;28;45368;-79
2022/03/30 01:28:57;;;;;;;;;60.25;47.50;;;;;11.99;67.93;100084.09;5073902;28;45399;-79
2022/03/30 01:34:07;;;;;;;;;62.75;47.25;;;;;11.93;68.15;100076.09;5080849;28;45432;-79
2022/03/30 01:36:35;;;;;;;;;62.00;48.75;;;;;12.01;69.50;100087.59;5076648;27;45331;-80
2022/03/30 01:39:01;;;;;;;;;63.75;49.50;;;;;11.96;69.56;100078.78;5079558;28;45371;-79
2022/03/30 01:41:27;;;;;;;;;62.25;48.75;;;;;11.48;68.20;99989.22;5074660;28;45236;-79
2022/03/30 01:43:52;;;;;;;;;60.00;48.00;;;;;11.82;68.17;100052.16;5080279;27;45242;-79
2022/03/30 01:46:17;;;;;;;;;61.75;48.00;;;;;12.05;69.83;100088.53;5073516;28;45272;-79
2022/03/30 01:48:43;;;;;;;;;58.25;48.00;;;;;12.05;69.08;100092.06;5080778;27;45415;-80
2022/03/30 01:51:08;;;;;;;;;58.25;45.50;;;;;11.89;69.46;100052.22;5081612;28;45509;-79
2022/03/30 01:53:33;;;;;;;;;64.75;50.25;;;;;12.08;69.49;100080.59;5078165;27;46253;-79
2022/03/30 01:55:59;;;;;;;;;65.00;50.75;;;;;12.09;70.30;100082.38;5077822;28;46124;-79
2022/03/30 01:58:24;;;;;;;;;62.00;48.25;;;;;11.79;69.64;100033.59;5076691;28;45716;-79
2022/03/30 02:00:49;;;;;;;;;63.25;49.75;;;;;12.07;69.50;100078.81;5069881;28;45252;-79
2022/03/30 02:03:15;;;;;;;;;58.75;47.75;;;;;11.76;69.59;100023.00;5075629;28;47029;-79
2022/03/30 02:05:40;;;;;;;;;61.25;48.75;;;;;11.94;69.64;100050.50;5076633;28;45327;-79
2022/03/30 02:08:06;;;;;;;;;59.25;47.00;;;;;12.07;69.96;100071.78;5078135;28;45327;-78
2022/03/30 02:10:32;;;;;;;;;65.50;50.75;;;;;12.09;69.51;100070.00;5076193;27;46219;-79
2022/03/30 02:12:58;;;;;;;;;66.75;51.50;;;;;12.03;69.66;100056.72;5075519;28;45816;-79
2022/03/30 02:15:24;;;;;;;;;62.25;48.25;;;;;11.96;69.12;100040.78;5074919;28;45225;-79
2022/03/30 02:17:49;;;;;;;;;62.75;49.75;;;;;12.04;69.20;100058.50;5075723;28;45462;-78
2022/03/30 02:20:15;;;;;;;;;64.25;48.00;;;;;11.89;69.37;100034.56;5077679;27;45464;-79
2022/03/30 02:22:41;;;;;;;;;63.25;47.00;;;;;12.00;70.27;100055.81;5074650;28;47364;-78
2022/03/30 02:25:08;;;;;;;;;62.00;45.25;;;;;11.77;70.84;100018.56;5078365;28;45296;-79
2022/03/30 02:27:34;;;;;;;;;58.25;46.50;;;;;11.60;68.79;99997.28;5075123;28;45387;-80
2022/03/30 02:29:59;;;;;;;;;64.00;50.00;;;;;11.89;70.26;100052.22;5078103;28;45303;-79
2022/03/30 02:32:24;;;;;;;;;67.75;50.25;;;;;11.72;70.25;100021.19;5075991;28;45330;-80
2022/03/30 02:34:50;;;;;;;;;64.50;50.00;;;;;11.86;70.01;100045.13;5072405;28;45541;-79
2022/03/30 02:37:16;;;;;;;;;62.50;49.25;;;;;11.49;69.65;99985.72;5079353;28;45360;-79
2022/03/30 02:39:42;;;;;;;;;61.50;49.50;;;;;11.67;70.21;100024.66;5072710;28;45397;-79
2022/03/30 02:42:07;;;;;;;;;60.25;48.25;;;;;11.70;69.41;100032.63;5077483;28;47217;-79
2022/03/30 02:44:34;;;;;;;;;61.25;49.00;;;;;11.43;70.44;99986.56;5073403;27;45422;-79
2022/03/30 02:47:01;;;;;;;;;60.00;48.00;;;;;11.44;70.17;99983.03;5078172;28;45260;-79
2022/03/30 02:49:27;;;;;;;;;61.25;47.50;;;;;11.73;70.52;100037.94;5076068;28;46480;-79
2022/03/30 02:51:52;;;;;;;;;61.00;49.50;;;;;11.58;69.89;100012.25;5078012;28;48557;-79
2022/03/30 02:54:18;;;;;;;;;69.25;51.50;;;;;11.64;70.69;100026.41;5075108;27;45406;-79
2022/03/30 02:56:43;;;;;;;;;68.25;50.00;;;;;11.41;70.64;99990.94;5076524;28;45384;-80
2022/03/30 02:59:09;;;;;;;;;67.25;50.00;;;;;11.71;67.66;100031.78;5076934;28;46127;-79
2022/03/30 03:01:34;;;;;;;;;62.00;49.75;;;;;11.61;69.16;100010.50;5068134;28;46245;-79
2022/03/30 03:03:59;;;;;;;;;65.00;50.50;;;;;11.72;70.61;100033.53;5076981;28;45636;-79
2022/03/30 03:06:25;;;;;;;;;65.75;52.00;;;;;11.70;72.71;100033.50;5076423;28;45287;-79
2022/03/30 03:08:51;;;;;;;;;63.00;47.50;;;;;11.69;71.17;100026.44;5077273;28;45328;-78
2022/03/30 03:11:17;;;;;;;;;63.00;50.00;;;;;11.70;71.28;100030.84;5078520;28;45437;-78
2022/03/30 03:13:42;;;;;;;;;68.25;50.75;;;;;11.65;71.53;100011.44;5080150;27;45315;-78
2022/03/30 03:16:08;;;;;;;;;59.75;48.25;;;;;11.49;70.82;99981.31;5071193;28;45398;-78
2022/03/30 03:18:35;;;;;;;;;64.75;49.00;;;;;11.73;70.65;100022.06;5079091;28;45451;-78
2022/03/30 03:21:00;;;;;;;;;62.75;48.50;;;;;11.73;70.32;100030.00;5078512;28;48489;-79
2022/03/30 03:23:26;;;;;;;;;68.25;50.50;;;;;11.52;71.30;99986.63;5079196;27;45211;-79
2022/03/30 03:25:53;;;;;;;;;62.25;50.00;;;;;11.65;72.31;100006.16;5073388;28;45297;-79
2022/03/30 03:28:18;;;;;;;;;61.75;47.50;;;;;11.75;70.74;100017.66;5079183;28;45501;-79
2022/03/30 03:30:44;;;;;;;;;67.00;52.75;;;;;11.59;70.67;99987.53;5080215;28;46065;-79
2022/03/30 03:33:10;;;;;;;;;64.50;50.00;;;;;11.75;71.06;100020.31;5077685;28;45358;-79
2022/03/30 03:35:35;;;;;;;;;61.00;48.25;;;;;11.75;71.07;100022.97;5070427;27;45441;-78
2022/03/30 03:38:03;;;;;;;;;62.00;47.25;;;;;11.52;70.43;99983.97;5077420;28;47034;-80
2022/03/30 03:40:30;;;;;;;;;66.25;50.25;;;;;11.52;70.27;99972.50;5068063;28;45394;-79
2022/03/30 03:42:56;;;;;;;;;68.75;50.00;;;;;11.55;70.29;99981.34;5078491;27;45290;-80
2022/03/30 03:45:22;;;;;;;;;61.50;46.50;;;;;11.59;71.37;99992.84;5103084;27;45389;-81
2022/03/30 03:47:48;;;;;;;;;65.25;50.25;;;;;11.57;71.16;99978.72;5078930;27;45390;-79
2022/03/30 03:50:14;;;;;;;;;63.75;48.75;;;;;11.72;69.86;100000.00;5078761;28;45979;-81
2022/03/30 03:52:40;;;;;;;;;63.25;49.75;;;;;11.69;69.82;100004.41;5079590;27;45282;-80
2022/03/30 03:55:06;;;;;;;;;72.75;52.25;;;;;11.67;69.40;100009.66;5070106;27;45394;-78
2022/03/30 03:57:33;;;;;;;;;63.25;50.75;;;;;11.67;70.95;100003.50;5077505;28;47518;-77
2022/03/30 03:59:59;;;;;;;;;67.50;50.25;;;;;11.36;72.12;99952.97;5083520;27;47111;-78
2022/03/30 04:02:24;;;;;;;;;59.00;47.00;;;;;11.65;68.27;99998.19;5067922;28;45139;-81
2022/03/30 04:04:50;;;;;;;;;66.75;49.00;;;;;11.62;71.04;100000.78;5076132;28;45578;-79
2022/03/30 04:07:15;;;;;;;;;63.25;50.25;;;;;11.62;71.16;100000.78;5068041;27;45304;-79
2022/03/30 04:09:40;;;;;;;;;64.50;49.50;;;;;11.62;71.37;99998.16;5075884;28;46141;-80
2022/03/30 04:12:07;;;;;;;;;67.00;53.00;;;;;11.63;72.09;99998.19;5069165;27;45243;-79
2022/03/30 04:14:32;;;;;;;;;64.25;50.00;;;;;11.42;71.73;99950.38;5078075;28;45410;-79
2022/03/30 04:16:57;;;;;;;;;64.75;49.75;;;;;11.50;70.77;99959.25;5074639;27;45418;-79
2022/03/30 04:19:23;;;;;;;;;67.50;52.75;;;;;11.68;71.58;99990.28;5077490;27;45565;-80
2022/03/30 04:21:48;;;;;;;;;68.25;51.25;;;;;11.47;71.38;99953.06;5071099;27;45406;-78
2022/03/30 04:24:14;;;;;;;;;73.75;55.00;;;;;11.64;71.35;99984.06;5077091;28;45335;-79
2022/03/30 04:26:39;;;;;;;;;66.50;49.00;;;;;11.61;71.48;99975.22;5072036;27;45479;-79
2022/03/30 04:29:05;;;;;;;;;60.75;48.25;;;;;11.69;70.93;99983.22;5077436;28;45572;-78
2022/03/30 04:31:31;;;;;;;;;70.75;55.50;;;;;11.56;71.59;99953.13;5073070;27;45390;-78
2022/03/30 04:33:56;;;;;;;;;67.75;50.50;;;;;11.70;70.11;99977.03;5077129;28;45300;-80
2022/03/30 04:36:22;;;;;;;;;68.00;53.75;;;;;11.70;71.63;99977.03;5070495;28;45363;-80
2022/03/30 04:38:47;;;;;;;;;67.00;52.75;;;;;11.59;71.15;99961.06;5078433;27;45677;-82
2022/03/30 04:41:13;;;;;;;;;67.00;49.50;;;;;11.60;70.83;99950.50;5069827;27;45364;-82
2022/03/30 04:43:39;;;;;;;;;66.75;53.00;;;;;11.77;71.42;99976.22;5075004;28;45326;-78
2022/03/30 04:46:05;;;;;;;;;68.75;52.50;;;;;11.79;71.54;99974.44;5071399;28;46243;-79
2022/03/30 04:48:31;;;;;;;;;61.75;48.75;;;;;11.54;70.96;99931.03;5071754;28;45402;-79
2022/03/30 04:50:56;;;;;;;;;68.25;51.75;;;;;11.79;71.54;99971.78;5078145;28;45264;-80
2022/03/30 04:53:22;;;;;;;;;70.25;53.00;;;;;11.78;70.62;99970.03;5075469;28;45242;-80
2022/03/30 04:55:47;;;;;;;;;68.25;51.75;;;;;11.64;70.32;99947.00;5074034;28;45252;-79
2022/03/30 04:58:13;;;;;;;;;72.00;53.00;;;;;11.70;71.33;99959.38;5081293;27;47992;-79
2022/03/30 05:00:38;;;;;;;;;71.75;53.00;;;;;11.50;71.14;99918.69;5082370;27;45461;-82
2022/03/30 05:03:04;;;;;;;;;74.50;54.75;;;;;11.50;72.46;99908.97;5097148;27;45261;-76
2022/03/30 05:05:29;;;;;;;;;62.75;51.50;;;;;11.55;71.67;99917.81;5071901;28;45777;-78
2022/03/30 05:07:55;;;;;;;;;64.00;51.00;;;;;11.60;71.79;99925.81;5079566;28;48064;-79
2022/03/30 05:10:21;;;;;;;;;62.75;50.25;;;;;11.81;71.09;99959.44;5077271;28;45392;-79
2022/03/30 05:12:46;;;;;;;;;76.75;56.00;;;;;11.82;71.54;99958.59;5074593;28;45370;-79
2022/03/30 05:15:12;;;;;;;;;67.25;52.75;;;;;11.70;71.95;99937.31;5080892;28;45295;-80
2022/03/30 05:17:39;;;;;;;;;73.00;56.25;;;;;11.62;72.42;99935.53;5081849;28;47305;-82
2022/03/30 05:20:06;;;;;;;;;71.00;54.50;;;;;11.64;71.15;99930.22;5081895;27;44760;-81
2022/03/30 05:22:33;;;;;;;;;67.00;51.75;;;;;11.80;71.89;99958.56;5083048;28;45162;-80
2022/03/30 05:24:59;;;;;;;;;68.75;53.25;;;;;11.58;71.78;99915.19;5083295;27;45284;-81
2022/03/30 05:27:25;;;;;;;;;70.50;54.00;;;;;11.72;71.68;99936.47;5083193;28;47424;-81
2022/03/30 05:29:50;;;;;;;;;75.75;56.75;;;;;11.85;72.09;99948.00;5082239;28;45445;-81
2022/03/30 05:32:16;;;;;;;;;63.50;51.50;;;;;11.56;70.71;99901.06;5076634;27;45478;-80
2022/03/30 05:34:41;;;;;;;;;69.75;54.00;;;;;11.70;71.79;99930.25;5072570;28;45640;-80
2022/03/30 05:37:08;;;;;;;;;68.50;53.00;;;;;11.88;69.72;99961.31;5080199;28;45335;-79
2022/03/30 05:39:35;;;;;;;;;65.50;52.00;;;;;11.69;71.52;99927.63;5075406;28;45474;-80
2022/03/30 05:42:01;;;;;;;;;68.00;54.00;;;;;11.88;71.80;99963.94;5077062;28;45270;-79
2022/03/30 05:44:26;;;;;;;;;75.50;57.00;;;;;11.80;72.32;99949.75;5075174;27;46259;-80
2022/03/30 05:46:52;;;;;;;;;74.25;54.25;;;;;11.62;71.72;99919.66;5075519;28;47093;-78
2022/03/30 05:49:18;;;;;;;;;71.25;54.75;;;;;11.88;70.59;99961.31;5077412;28;44788;-79
2022/03/30 05:51:44;;;;;;;;;70.75;56.75;;;;;11.73;70.16;99937.34;5079913;28;45276;-82
2022/03/30 05:54:09;;;;;;;;;71.75;55.50;;;;;11.79;72.44;99956.81;5078079;28;45620;-79
2022/03/30 05:59:19;;;;;;;;;71.75;57.25;;;;;11.68;72.41;99939.06;5075334;28;45368;-82
2022/03/30 06:01:44;;;;;;;;;70.50;54.25;;;;;11.68;72.49;99945.28;5068774;27;45621;-80
2022/03/30 06:04:09;;;;;;;;;70.50;55.25;;;;;11.88;72.62;99968.38;5077381;28;45446;-81
2022/03/30 06:06:35;;;;;;;;;77.25;59.25;;;;;11.88;71.96;99971.91;5070310;28;46413;-82
2022/03/30 06:09:05;;;;;;;;;76.50;55.50;;;;;11.85;71.08;99975.41;5077602;28;45273;-80
2022/03/30 06:11:30;;;;;;;;;73.75;55.25;;;;;11.82;72.16;99972.72;5071444;28;45310;-83
2022/03/30 06:13:58;;;;;;;;;72.25;55.50;;;;;11.55;71.62;99939.00;5075440;28;45913;-81
2022/03/30 06:16:24;;;;;;;;;77.00;57.75;;;;;11.61;72.99;99938.16;5074748;27;48137;-80
2022/03/30 06:18:50;;;;;;;;;74.00;56.50;;;;;11.77;71.97;99982.38;5075202;28;45261;-79
2022/03/30 06:21:15;;;;;;;;;75.50;58.25;;;;;11.61;71.82;99938.16;5080013;28;45625;-79
2022/03/30 06:23:41;;;;;;;;;74.75;56.75;;;;;11.60;71.10;99942.56;5075440;28;45902;-79
2022/03/30 06:26:07;;;;;;;;;73.75;57.25;;;;;11.73;71.23;99962.03;5079612;27;45363;-80
2022/03/30 06:28:33;;;;;;;;;74.50;59.25;;;;;11.85;71.23;99978.06;5112976;27;45376;-79
2022/03/30 06:30:58;;;;;;;;;70.25;55.50;;;;;11.79;72.57;99975.34;5070360;28;45368;-83
2022/03/30 06:33:23;;;;;;;;;78.00;55.50;;;;;11.65;72.35;99954.09;5079866;27;45529;-81
2022/03/30 06:35:49;;;;;;;;;71.25;55.00;;;;;11.82;71.75;99975.38;5071250;28;45424;-79
2022/03/30 06:38:14;;;;;;;;;73.50;56.75;;;;;11.89;71.51;99986.91;5112528;27;45740;-81
2022/03/30 06:40:40;;;;;;;;;78.50;59.00;;;;;11.88;72.71;99992.19;5071371;28;44854;-79
2022/03/30 06:43:05;;;;;;;;;71.25;55.50;;;;;11.76;71.83;99964.75;5079069;27;45482;-80
2022/03/30 06:45:31;;;;;;;;;75.75;56.50;;;;;11.89;72.08;99988.66;5070687;28;45261;-79
2022/03/30 06:47:56;;;;;;;;;71.50;56.00;;;;;11.82;72.15;99969.19;5077952;28;45854;-80
2022/03/30 06:50:22;;;;;;;;;73.50;56.00;;;;;11.77;72.53;99973.56;5076845;27;45227;-83
2022/03/30 06:52:47;;;;;;;;;75.75;60.50;;;;;11.85;71.56;99988.66;5070448;28;45300;-82
2022/03/30 06:55:14;;;;;;;;;73.50;57.25;;;;;11.91;72.41;99992.22;5084946;27;47117;-83
2022/03/30 06:57:41;;;;;;;;;73.50;56.25;;;;;11.64;71.10;99952.28;5070103;28;45432;-82
2022/03/30 07:00:07;;;;;;;;;75.50;58.00;;;;;11.85;72.70;99987.72;5083824;27;45378;-84
2022/03/30 07:02:32;;;;;;;;;73.25;55.50;;;;;11.65;71.79;99951.44;5071590;28;46751;-83
2022/03/30 07:04:58;;;;;;;;;72.00;55.00;;;;;11.95;70.79;99992.22;5070470;28;47433;-82
2022/03/30 07:10:18;;;;;;;;;71.25;53.25;;;;;11.80;71.38;99976.22;5015824;28;45365;-82
2022/03/30 07:12:48;;;;;;;;;73.00;57.75;;;;;11.76;71.30;99966.47;5074770;28;45671;-83
2022/03/30 07:15:15;;;;;;;;;70.25;56.25;;;;;11.78;72.71;99972.66;5077344;27;46016;-82
2022/03/30 07:17:48;;;;;;;;;78.00;57.75;;;;;11.87;72.43;99988.63;5074840;28;45450;-82
2022/03/30 07:20:14;;;;;;;;;73.00;56.50;;;;;11.63;71.53;99945.22;5077962;28;45986;-81
2022/03/30 07:22:41;;;;;;;;;74.00;57.00;;;;;11.91;71.84;99995.75;5077825;28;45003;-80
2022/03/30 07:25:08;;;;;;;;;72.25;56.00;;;;;11.65;70.86;99947.91;5075383;28;47724;-82
2022/03/30 07:27:33;;;;;;;;;76.25;56.25;;;;;11.72;71.81;99959.41;5083308;28;44804;-87
2022/03/30 07:29:59;;;;;;;;;71.25;54.50;;;;;11.82;72.46;99975.38;5071671;27;45959;-85
2022/03/30 07:32:24;;;;;;;;;71.75;55.50;;;;;11.63;71.86;99945.22;5079310;28;46030;-88
2022/03/30 07:34:52;;;;;;;;;73.00;56.00;;;;;11.92;73.71;99989.56;5072040;27;45393;-87
2022/03/30 07:37:17;;;;;;;;;67.75;53.75;;;;;11.92;72.78;99994.84;5068905;28;45286;-88
2022/03/30 07:39:43;;;;;;;;;73.50;57.25;;;;;11.67;72.21;99942.59;5078821;28;45249;-87
2022/03/30 07:42:08;;;;;;;;;73.25;57.00;;;;;11.70;72.31;99948.78;5080065;27;45543;-78
2022/03/30 07:44:34;;;;;;;;;72.75;56.50;;;;;11.60;71.42;99924.03;5072400;28;46461;-83
2022/03/30 07:47:01;;;;;;;;;71.25;56.00;;;;;11.66;72.32;99939.06;5083047;28;45121;-86
2022/03/30 07:49:26;;;;;;;;;75.75;57.25;;;;;11.75;73.19;99962.94;5083187;28;45909;-84
2022/03/30 07:51:51;;;;;;;;;75.75;58.00;;;;;11.74;72.80;99966.47;5069077;28;45286;-84
2022/03/30 07:54:17;;;;;;;;;71.00;56.50;;;;;11.88;72.15;99987.78;5077105;28;46942;-82
2022/03/30 07:56:42;;;;;;;;;75.00;57.00;;;;;11.89;72.43;99984.25;5092421;27;45690;-82
2022/03/30 07:59:08;;;;;;;;;74.50;58.50;;;;;11.82;73.42;99977.13;5076097;28;45167;-85
2022/03/30 08:01:33;;;;;;;;;70.25;55.00;;;;;11.83;72.39;99976.25;5067704;28;45648;-80
2022/03/30 08:03:59;;;;;;;;;74.25;59.75;;;;;11.92;74.23;99988.69;5074186;28;46898;-80
2022/03/30 08:06:24;;;;;;;;;72.50;55.50;;;;;11.85;73.67;99977.16;5069617;28;45491;-82
2022/03/30 08:08:49;;;;;;;;;76.25;57.00;;;;;11.91;74.23;99990.44;5078754;28;45498;-83
2022/03/30 08:11:15;;;;;;;;;75.00;57.75;;;;;11.39;73.71;99892.16;5069582;27;45252;-79
2022/03/30 08:13:40;;;;;;;;;73.25;56.00;;;;;11.70;74.59;99948.78;5075738;28;46963;-80
2022/03/30 08:16:05;;;;;;;;;71.50;57.00;;;;;11.84;74.35;99970.94;5070875;28;45434;-78
2022/03/30 08:18:31;;;;;;;;;67.00;52.50;;;;;11.75;72.56;99959.41;5078234;28;45996;-77
2022/03/30 08:23:40;;;;;;;;;74.00;56.00;;;;;11.70;73.59;99967.31;5078156;28;45984;-79
2022/03/30 08:26:06;;;;;;;;;74.75;57.50;;;;;11.59;74.29;99947.84;5077441;28;45325;-79
2022/03/30 08:28:31;;;;;;;;;80.50;59.50;;;;;11.64;74.42;99951.41;5078205;28;45342;-81
2022/03/30 08:30:57;;;;;;;;;81.50;65.00;;;;;11.83;73.50;99979.78;5076515;27;45755;-80
2022/03/30 08:33:26;;;;;;;;;74.25;57.25;;;;;11.78;73.15;99970.03;5078715;28;47271;-80
2022/03/30 08:35:56;;;;;;;;;75.00;58.00;;;;;11.77;73.04;99966.50;5070567;28;45506;-77
2022/03/30 08:38:22;;;;;;;;;77.00;60.75;;;;;11.52;73.08;99944.28;5078047;28;45302;-78
2022/03/30 08:40:47;;;;;;;;;75.00;57.50;;;;;11.48;73.27;99944.25;5069692;28;45410;-79
2022/03/30 08:43:13;;;;;;;;;62.50;51.75;;;;;11.67;70.46;99979.66;5076468;28;47950;-77
2022/03/30 08:45:39;;;;;;;;;80.25;58.50;;;;;11.73;73.91;99983.22;5069236;27;45351;-78
2022/03/30 08:48:05;;;;;;;;;76.00;61.25;;;;;11.64;73.16;99964.66;5077880;27;45352;-77
2022/03/30 08:50:31;;;;;;;;;79.50;63.25;;;;;11.51;73.72;99942.53;5078006;28;45374;-80
2022/03/30 08:53:02;;;;;;;;;77.00;61.25;;;;;11.80;73.48;99985.06;5077638;28;45340;-79
2022/03/30 08:55:27;;;;;;;;;76.50;60.75;;;;;11.64;72.79;99946.13;5069651;28;45382;-79
2022/03/30 08:57:53;;;;;;;;;80.50;64.00;;;;;11.58;74.44;99935.50;5078695;27;45280;-79
2022/03/30 09:00:20;;;;;;;;;75.50;57.25;;;;;11.91;72.45;99979.84;5072860;28;45383;-78
2022/03/30 09:02:52;;;;;;;;;78.00;60.00;;;;;11.93;73.73;99985.16;5068218;28;47251;-79
2022/03/30 09:05:20;;;;;;;;;80.50;62.25;;;;;11.98;73.44;99984.28;5078310;27;45399;-77
2022/03/30 09:07:51;;;;;;;;;67.75;50.75;;;;;11.98;71.63;99989.59;5078755;28;45382;-78
2022/03/30 09:10:22;;;;;;;;;75.50;60.00;;;;;11.93;72.58;99979.84;5063307;28;47315;-79
2022/03/30 09:12:52;;;;;;;;;75.25;57.25;;;;;11.91;72.31;99978.97;5071863;28;45334;-81
2022/03/30 09:15:20;;;;;;;;;77.50;58.00;;;;;11.82;72.84;99950.66;5075117;28;45209;-81
2022/03/30 09:17:46;;;;;;;;;76.50;60.00;;;;;11.90;72.69;99945.41;5071482;28;45595;-78
2022/03/30 09:20:16;;;;;;;;;75.25;58.25;;;;;12.08;73.47;99972.88;5086599;27;45837;-79
2022/03/30 09:22:47;;;;;;;;;82.25;62.50;;;;;12.14;72.11;99973.78;5075744;28;47593;-81
2022/03/30 09:25:13;;;;;;;;;75.50;56.75;;;;;12.26;72.27;99987.97;5077710;28;45417;-80
2022/03/30 09:27:42;;;;;;;;;78.50;58.75;;;;;12.26;71.57;99974.72;5073808;28;45331;-79
2022/03/30 09:30:09;;;;;;;;;78.25;57.25;;;;;12.29;70.54;99972.09;5076045;28;45190;-80
2022/03/30 09:32:35;;;;;;;;;72.00;56.50;;;;;12.10;70.70;99935.81;5073701;28;46368;-79
2022/03/30 09:35:00;;;;;;;;;79.00;59.25;;;;;12.49;69.95;99989.81;5068171;28;45396;-79
2022/03/30 09:37:26;;;;;;;;;77.00;60.50;;;;;12.56;71.06;99998.69;5077854;27;45435;-84
2022/03/30 09:39:51;;;;;;;;;78.50;59.00;;;;;12.27;70.68;99934.09;5071023;27;45345;-80
2022/03/30 09:42:18;;;;;;;;;79.75;63.00;;;;;12.71;71.74;99983.69;5080051;28;45375;-80
2022/03/30 09:44:51;;;;;;;;;78.00;58.25;;;;;12.73;70.66;99952.75;5075640;28;44804;-79
2022/03/30 09:47:19;;;;;;;;;75.00;55.25;;;;;12.97;70.23;99973.16;5077753;28;45323;-80
2022/03/30 09:49:47;;;;;;;;;72.25;56.00;;;;;13.10;70.24;99975.81;5080647;27;45494;-80
2022/03/30 09:52:21;;;;;;;;;74.75;56.75;;;;;13.33;69.92;99975.84;5067779;28;46512;-80
2022/03/30 09:55:01;;;;;;;;;77.50;56.50;;;;;13.43;69.00;99972.31;5076127;28;45232;-79
2022/03/30 09:57:38;;;;;;;;;69.50;53.50;;;;;13.43;68.05;99973.19;5076921;28;45428;-81
2022/03/30 10:00:11;;;;;;;;;72.75;56.50;;;;;13.46;68.61;99972.31;5072960;28;46185;-79
2022/03/30 10:02:42;;;;;;;;;77.00;59.50;;;;;13.50;68.25;99970.53;5069960;28;48482;-79
2022/03/30 10:05:10;;;;;;;;;72.00;54.50;;;;;13.45;68.53;99954.63;5079274;28;45353;-85
2022/03/30 10:07:36;;;;;;;;;71.25;55.75;;;;;13.59;68.09;99968.75;5076701;28;45382;-80
2022/03/30 10:10:03;;;;;;;;;75.25;57.00;;;;;13.49;67.37;99956.38;5082596;28;45435;-82
2022/03/30 10:12:28;;;;;;;;;75.25;57.00;;;;;13.27;67.23;99939.56;5074697;28;46415;-83
2022/03/30 10:14:55;;;;;;;;;73.25;56.00;;;;;13.53;68.29;99975.84;5069992;28;45352;-79
2022/03/30 10:17:22;;;;;;;;;74.25;54.00;;;;;13.57;67.47;99967.88;5079350;28;45426;-80
2022/03/30 10:19:49;;;;;;;;;70.00;54.50;;;;;13.55;67.01;99964.31;5080261;28;45128;-78
2022/03/30 10:22:45;;;;;;;;;74.50;54.25;;;;;13.48;67.34;99962.56;5079250;28;47151;-80
2022/03/30 10:25:49;;;;;;;;;75.50;56.75;;;;;13.49;67.94;99960.78;5075233;28;45456;-84
2022/03/30 10:28:31;;;;;;;;;74.50;59.00;;;;;13.38;68.01;99928.94;5049572;28;45447;-82
2022/03/30 10:30:58;;;;;;;;;72.75;57.00;;;;;13.69;67.21;99959.00;5068676;28;45402;-82
2022/03/30 10:33:37;;;;;;;;;73.25;55.50;;;;;13.78;67.28;99956.34;5077962;28;47226;-81
2022/03/30 10:36:28;;;;;;;;;81.25;62.00;;;;;13.92;67.42;99964.28;5070749;28;45363;-83
2022/03/30 10:39:16;;;;;;;;;72.00;55.25;;;;;13.98;66.46;99945.66;5080233;28;45847;-80
2022/03/30 10:41:50;;;;;;;;;71.50;54.00;;;;;14.14;66.47;99957.09;5068144;28;46162;-81
2022/03/30 10:44:42;;;;;;;;;64.25;50.00;;;;;14.19;65.79;99957.97;5068299;28;45456;-81
2022/03/30 10:47:10;;;;;;;;;70.25;55.25;;;;;14.26;65.91;99946.44;5076814;28;45279;-82
2022/03/30 10:49:57;;;;;;;;;68.00;51.50;;;;;14.21;66.18;99926.06;5072598;28;45735;-83
2022/03/30 10:52:40;;;;;;;;;65.50;51.00;;;;;14.45;65.61;99938.34;5066216;28;45311;-83
2022/03/30 10:55:11;;;;;;;;;67.25;52.00;;;;;14.51;65.84;99922.38;5075903;27;45384;-83
2022/03/30 10:57:51;;;;;;;;;72.75;55.25;;;;;14.61;65.56;99896.63;5079972;28;45418;-83
2022/03/30 11:00:21;;;;;;;;;68.00;53.00;;;;;15.00;65.51;99928.25;5076066;27;45508;-84
2022/03/30 11:02:46;;;;;;;;;68.00;52.00;;;;;15.15;62.23;99924.59;5072142;28;45675;-83
2022/03/30 11:05:13;;;;;;;;;65.25;52.00;;;;;15.19;63.35;99907.69;5077958;28;47519;-83
2022/03/30 11:07:39;;;;;;;;;72.75;55.00;;;;;15.12;63.80;99874.03;5080676;28;45222;-83
2022/03/30 11:10:20;;;;;;;;;66.50;51.75;;;;;15.34;63.20;99897.81;5079555;27;45359;-83
2022/03/30 11:13:03;;;;;;;;;62.75;50.00;;;;;15.32;62.41;99881.84;5073570;28;45256;-83
2022/03/30 11:15:30;;;;;;;;;64.50;51.00;;;;;15.18;62.33;99847.38;5075319;28;46224;-84
2022/03/30 11:18:16;;;;;;;;;58.75;44.75;;;;;15.52;61.24;99886.97;5075722;28;45267;-83
2022/03/30 11:21:02;;;;;;;;;62.00;47.75;;;;;15.51;61.91;99871.00;5078750;28;45221;-83
2022/03/30 11:23:28;;;;;;;;;64.00;48.00;;;;;15.73;62.19;99915.19;5079438;27;45386;-82
2022/03/30 11:25:56;;;;;;;;;58.75;43.75;;;;;15.66;58.89;99894.81;5079641;28;46183;-83